»·PEaware :: WAT446 KSFO-KPDX

WAT446 :: KSFO-KPDX

FLIGHT INFORMATION

Flight Status: Arrived
Operator:
Walker Air Transport
More flights by this operator :: More flights under this callsign
Pilot: Robert C. (30425)
Aircraft: BOEING 767-300
(B763)
More flights by this aircraft type
Origin: KSFO San Francisco Intl
United States
Destination: KPDX Portland Intl
United States
More flights between these airports :: More routes between these airports
Route: TRUKN2 GRTFL MACHU TMBRS2
File this flight plan on PilotEdge
Remarks: RMK / SIMBRIEF
Altitude:
(Current/Filed)
34,000ft
Speed:
(Current/Filed)
494kts
Departed: 26-Jun-21 02:21 PM
Arrived: 26-Jun-21 03:35 PM
Distance/Time
Traveled:
478nm/1:14
Distance/Time
To Go:
Arrived

Flight Plot

Page will automatically refresh every two minutes.


Map Options




Map Legend


Flown Route
Filed Route
Departure Airport
Arrival Airport
Navaid (VOR, NDB)
Fix

Horizontal Profiles

Position Reports

Time Latitude Longitude Heading Altitude Ground
Speed
26-Jun-21 13:39 37.618633 -122.381676 167 34ft 0kts
26-Jun-21 13:40 37.618633 -122.381676 167 34ft 0kts
26-Jun-21 13:41 37.618633 -122.381676 167 34ft 0kts
26-Jun-21 13:42 37.618633 -122.381676 167 34ft 0kts
26-Jun-21 13:43 37.618633 -122.381676 167 34ft 0kts
26-Jun-21 13:44 37.618633 -122.381676 167 34ft 0kts
26-Jun-21 13:45 37.618633 -122.381676 167 34ft 0kts
26-Jun-21 13:46 37.618633 -122.381676 167 34ft 0kts
26-Jun-21 13:47 37.618633 -122.381676 167 34ft 0kts
26-Jun-21 13:48 37.618633 -122.381676 167 34ft 0kts
26-Jun-21 13:49 37.618633 -122.381676 167 34ft 0kts
26-Jun-21 13:50 37.618633 -122.381676 167 34ft 0kts
26-Jun-21 13:51 37.618633 -122.381676 167 34ft 0kts
26-Jun-21 13:52 37.618633 -122.381676 167 34ft 0kts
26-Jun-21 13:53 37.618633 -122.381676 167 34ft 0kts
26-Jun-21 13:54 37.618633 -122.381676 167 34ft 0kts
26-Jun-21 13:55 37.618633 -122.381676 167 34ft 0kts
26-Jun-21 13:56 37.618633 -122.381676 167 34ft 0kts
26-Jun-21 13:57 37.618633 -122.381676 167 34ft 0kts
26-Jun-21 13:58 37.618633 -122.381676 167 34ft 0kts
26-Jun-21 13:59 37.618633 -122.381676 167 34ft 0kts
26-Jun-21 14:00 37.618633 -122.381676 167 34ft 0kts
26-Jun-21 14:01 37.618633 -122.381676 167 34ft 0kts
26-Jun-21 14:02 37.618633 -122.381676 167 34ft 0kts
26-Jun-21 14:03 37.618633 -122.381676 167 34ft 0kts
26-Jun-21 14:04 37.618633 -122.381676 167 34ft 0kts
26-Jun-21 14:05 37.618633 -122.381676 167 34ft 0kts
26-Jun-21 14:06 37.618632 -122.381676 167 34ft 0kts
26-Jun-21 14:07 37.618633 -122.381676 167 34ft 0kts
26-Jun-21 14:08 37.619040 -122.381683 179 34ft 2kts
26-Jun-21 14:09 37.619555 -122.381735 124 34ft 1kts
26-Jun-21 14:10 37.619585 -122.381804 117 34ft 0kts
26-Jun-21 14:11 37.619585 -122.381804 117 34ft 0kts
26-Jun-21 14:12 37.619585 -122.381804 117 34ft 0kts
26-Jun-21 14:13 37.619585 -122.381804 117 34ft 0kts
26-Jun-21 14:14 37.618038 -122.379555 160 33ft 10kts
26-Jun-21 14:15 37.615617 -122.380304 210 34ft 7kts
26-Jun-21 14:16 37.610708 -122.383609 209 34ft 39kts
26-Jun-21 14:17 37.606784 -122.383871 134 33ft 1kts
26-Jun-21 14:18 37.606251 -122.382650 107 32ft 0kts
26-Jun-21 14:20 37.606251 -122.382650 107 32ft 0kts
26-Jun-21 14:21 37.615829 -122.374841 26 23ft 151kts
26-Jun-21 14:22 37.649793 -122.334241 50 1009ft 205kts
26-Jun-21 14:23 37.687698 -122.270948 52 1809ft 248kts
26-Jun-21 14:24 37.736882 -122.216964 0 3682ft 247kts
26-Jun-21 14:25 37.806386 -122.217088 358 4026ft 254kts
26-Jun-21 14:26 37.877031 -122.218820 358 7420ft 263kts
26-Jun-21 14:27 37.951864 -122.220788 359 10360ft 285kts
26-Jun-21 14:28 38.044055 -122.223228 359 11431ft 378kts
26-Jun-21 14:29 38.151373 -122.226090 359 14912ft 394kts
26-Jun-21 14:30 38.261879 -122.229043 358 18186ft 409kts
26-Jun-21 14:31 38.378742 -122.234028 354 19976ft 419kts
26-Jun-21 14:32 38.497504 -122.246525 354 22646ft 439kts
26-Jun-21 14:33 38.620887 -122.259384 354 25278ft 456kts
26-Jun-21 14:34 38.749015 -122.272773 354 27666ft 473kts
26-Jun-21 14:35 38.880694 -122.286577 354 30270ft 479kts
26-Jun-21 14:36 39.015070 -122.300788 356 32234ft 489kts
26-Jun-21 14:37 39.147575 -122.314724 356 34099ft 486kts
26-Jun-21 14:38 39.282511 -122.329031 356 34036ft 486kts
26-Jun-21 14:39 39.416863 -122.343336 356 34011ft 486kts
26-Jun-21 14:40 39.551090 -122.357680 356 34012ft 486kts
26-Jun-21 14:41 39.685190 -122.372068 356 34001ft 487kts
26-Jun-21 14:41 39.797229 -122.384132 356 33998ft 486kts
26-Jun-21 14:42 39.931329 -122.398625 356 33996ft 487kts
26-Jun-21 14:44 40.088201 -122.415646 356 33997ft 486kts
26-Jun-21 14:45 40.222688 -122.430303 356 33992ft 487kts
26-Jun-21 14:46 40.356948 -122.444994 356 33985ft 486kts
26-Jun-21 14:46 40.468711 -122.457270 356 33988ft 487kts
26-Jun-21 14:47 40.603580 -122.472139 356 33986ft 486kts
26-Jun-21 14:49 40.759967 -122.489453 356 33987ft 486kts
26-Jun-21 14:49 40.872312 -122.501944 356 33989ft 487kts
26-Jun-21 14:50 41.006844 -122.516970 356 34001ft 486kts
26-Jun-21 14:51 41.139983 -122.531904 357 34102ft 480kts
26-Jun-21 14:53 41.294652 -122.549271 357 34198ft 481kts
26-Jun-21 14:53 41.404514 -122.561687 357 34200ft 480kts
26-Jun-21 14:54 41.537917 -122.576374 359 34298ft 478kts
26-Jun-21 14:55 41.670690 -122.584822 359 34120ft 474kts
26-Jun-21 14:56 41.803652 -122.593487 359 34111ft 480kts
26-Jun-21 14:58 41.958210 -122.603618 359 34112ft 480kts
26-Jun-21 14:58 42.065434 -122.610674 359 34112ft 480kts
26-Jun-21 14:59 42.200978 -122.619633 359 34069ft 480kts
26-Jun-21 15:00 42.332801 -122.628419 359 34040ft 480kts
26-Jun-21 15:01 42.466591 -122.637378 359 34039ft 480kts
26-Jun-21 15:02 42.599549 -122.646318 359 34039ft 480kts
26-Jun-21 15:03 42.731257 -122.655214 359 33074ft 472kts
26-Jun-21 15:04 42.861892 -122.664066 359 32078ft 473kts
26-Jun-21 15:05 42.994169 -122.673086 359 31074ft 479kts
26-Jun-21 15:06 43.127673 -122.682205 0 30081ft 486kts
26-Jun-21 15:07 43.262587 -122.691476 359 29073ft 487kts
26-Jun-21 15:08 43.396068 -122.700708 359 28162ft 472kts
26-Jun-21 15:09 43.528412 -122.709816 359 27163ft 474kts
26-Jun-21 15:10 43.658618 -122.718831 359 26154ft 467kts
26-Jun-21 15:11 43.787277 -122.727776 359 25147ft 461kts
26-Jun-21 15:12 43.913904 -122.736617 359 24145ft 455kts
26-Jun-21 15:13 44.039323 -122.748302 357 24026ft 454kts
26-Jun-21 15:14 44.164137 -122.751715 5 23972ft 453kts
26-Jun-21 15:15 44.290343 -122.739331 5 21221ft 448kts
26-Jun-21 15:16 44.411192 -122.727408 5 18783ft 422kts
26-Jun-21 15:17 44.525578 -122.716062 4 16729ft 408kts
26-Jun-21 15:18 44.630235 -122.705630 4 15952ft 362kts
26-Jun-21 15:19 44.728463 -122.695753 4 14382ft 346kts
26-Jun-21 15:20 44.823014 -122.686228 4 12850ft 335kts
26-Jun-21 15:21 44.915024 -122.676966 4 11578ft 329kts
26-Jun-21 15:22 45.001643 -122.668228 4 10504ft 312kts
26-Jun-21 15:23 45.084119 -122.659861 6 9623ft 288kts
26-Jun-21 15:24 45.161946 -122.651919 6 8514ft 276kts
26-Jun-21 15:25 45.237268 -122.643881 12 7380ft 269kts
26-Jun-21 15:26 45.294902 -122.579881 43 5943ft 268kts
26-Jun-21 15:27 45.348133 -122.506550 43 5031ft 250kts
26-Jun-21 15:28 45.398447 -122.443131 32 5042ft 242kts
26-Jun-21 15:29 45.455747 -122.390220 32 4357ft 258kts
26-Jun-21 15:30 45.521715 -122.391931 310 2484ft 239kts
26-Jun-21 15:31 45.535105 -122.478057 313 1754ft 237kts
26-Jun-21 15:32 45.564511 -122.543209 299 659ft 157kts
26-Jun-21 15:33 45.583548 -122.591820 299 25ft 124kts
26-Jun-21 15:34 45.589833 -122.604154 41 28ft 0kts

Navigation Log

Ident Type
Flight plan parsing failed, navigation log unavailable